sensor_id;sensor_type;location;lat;lon;timestamp;P1;durP1;ratioP1;P2;durP2;ratioP2
25435;SDS011;13363;52.772;-3.890;2024-02-15T00:02:15;0.50;;;0.50;;
25435;SDS011;13363;52.772;-3.890;2024-02-15T00:04:42;1.63;;;0.70;;
25435;SDS011;13363;52.772;-3.890;2024-02-15T00:07:08;0.53;;;0.40;;
25435;SDS011;13363;52.772;-3.890;2024-02-15T00:09:34;0.60;;;0.50;;
25435;SDS011;13363;52.772;-3.890;2024-02-15T00:12:01;1.70;;;0.50;;
25435;SDS011;13363;52.772;-3.890;2024-02-15T00:14:27;1.73;;;0.80;;
25435;SDS011;13363;52.772;-3.890;2024-02-15T00:16:54;1.40;;;0.93;;
25435;SDS011;13363;52.772;-3.890;2024-02-15T00:19:20;1.10;;;0.97;;
25435;SDS011;13363;52.772;-3.890;2024-02-15T00:21:47;0.97;;;0.77;;
25435;SDS011;13363;52.772;-3.890;2024-02-15T00:24:13;0.70;;;0.70;;
25435;SDS011;13363;52.772;-3.890;2024-02-15T00:26:40;1.27;;;0.97;;
25435;SDS011;13363;52.772;-3.890;2024-02-15T00:29:09;1.80;;;1.00;;
25435;SDS011;13363;52.772;-3.890;2024-02-15T00:31:36;0.93;;;0.80;;
25435;SDS011;13363;52.772;-3.890;2024-02-15T00:34:03;1.00;;;1.00;;
25435;SDS011;13363;52.772;-3.890;2024-02-15T00:36:29;1.77;;;1.17;;
25435;SDS011;13363;52.772;-3.890;2024-02-15T00:38:55;1.87;;;0.97;;
25435;SDS011;13363;52.772;-3.890;2024-02-15T00:41:22;1.20;;;1.10;;
25435;SDS011;13363;52.772;-3.890;2024-02-15T00:43:48;2.70;;;1.50;;
25435;SDS011;13363;52.772;-3.890;2024-02-15T00:46:17;1.57;;;1.10;;
25435;SDS011;13363;52.772;-3.890;2024-02-15T00:48:43;1.47;;;1.30;;
25435;SDS011;13363;52.772;-3.890;2024-02-15T00:51:10;1.03;;;1.03;;
25435;SDS011;13363;52.772;-3.890;2024-02-15T00:53:36;1.60;;;1.10;;
25435;SDS011;13363;52.772;-3.890;2024-02-15T00:56:02;1.23;;;1.10;;
25435;SDS011;13363;52.772;-3.890;2024-02-15T00:58:28;2.73;;;0.90;;
25435;SDS011;13363;52.772;-3.890;2024-02-15T01:00:55;1.03;;;0.80;;
25435;SDS011;13363;52.772;-3.890;2024-02-15T01:03:22;0.93;;;0.80;;
25435;SDS011;13363;52.772;-3.890;2024-02-15T01:05:48;0.50;;;0.50;;
25435;SDS011;13363;52.772;-3.890;2024-02-15T01:08:14;0.57;;;0.43;;
25435;SDS011;13363;52.772;-3.890;2024-02-15T01:10:40;0.80;;;0.80;;
25435;SDS011;13363;52.772;-3.890;2024-02-15T01:13:07;0.60;;;0.60;;
25435;SDS011;13363;52.772;-3.890;2024-02-15T01:15:34;1.07;;;0.60;;
25435;SDS011;13363;52.772;-3.890;2024-02-15T01:18:02;1.03;;;0.87;;
25435;SDS011;13363;52.772;-3.890;2024-02-15T01:20:28;1.10;;;1.00;;
25435;SDS011;13363;52.772;-3.890;2024-02-15T01:22:55;1.00;;;0.97;;
25435;SDS011;13363;52.772;-3.890;2024-02-15T01:25:22;1.90;;;0.90;;
25435;SDS011;13363;52.772;-3.890;2024-02-15T01:27:48;0.90;;;0.90;;
25435;SDS011;13363;52.772;-3.890;2024-02-15T01:30:14;0.80;;;0.80;;
25435;SDS011;13363;52.772;-3.890;2024-02-15T01:32:40;1.60;;;1.10;;
25435;SDS011;13363;52.772;-3.890;2024-02-15T01:35:07;1.63;;;0.77;;
25435;SDS011;13363;52.772;-3.890;2024-02-15T01:37:35;0.80;;;0.80;;
25435;SDS011;13363;52.772;-3.890;2024-02-15T01:40:02;1.77;;;1.03;;
25435;SDS011;13363;52.772;-3.890;2024-02-15T01:42:28;1.00;;;0.33;;
25435;SDS011;13363;52.772;-3.890;2024-02-15T01:44:54;1.87;;;1.07;;
25435;SDS011;13363;52.772;-3.890;2024-02-15T01:47:21;1.90;;;1.07;;
25435;SDS011;13363;52.772;-3.890;2024-02-15T01:49:47;1.27;;;1.10;;
25435;SDS011;13363;52.772;-3.890;2024-02-15T01:52:14;2.30;;;0.97;;
25435;SDS011;13363;52.772;-3.890;2024-02-15T01:54:42;1.27;;;0.90;;
25435;SDS011;13363;52.772;-3.890;2024-02-15T01:57:08;1.03;;;0.80;;
25435;SDS011;13363;52.772;-3.890;2024-02-15T01:59:34;1.57;;;1.10;;
25435;SDS011;13363;52.772;-3.890;2024-02-15T02:02:02;1.60;;;0.80;;
25435;SDS011;13363;52.772;-3.890;2024-02-15T02:04:28;3.60;;;0.90;;
25435;SDS011;13363;52.772;-3.890;2024-02-15T02:06:57;0.93;;;0.73;;
25435;SDS011;13363;52.772;-3.890;2024-02-15T02:09:24;3.77;;;0.90;;
25435;SDS011;13363;52.772;-3.890;2024-02-15T02:11:50;1.80;;;1.00;;
25435;SDS011;13363;52.772;-3.890;2024-02-15T02:14:17;1.23;;;0.90;;
25435;SDS011;13363;52.772;-3.890;2024-02-15T02:16:45;1.57;;;0.60;;
25435;SDS011;13363;52.772;-3.890;2024-02-15T02:19:12;2.83;;;0.83;;
25435;SDS011;13363;52.772;-3.890;2024-02-15T02:21:38;1.37;;;0.60;;
25435;SDS011;13363;52.772;-3.890;2024-02-15T02:24:13;2.30;;;0.97;;
25435;SDS011;13363;52.772;-3.890;2024-02-15T02:26:40;1.63;;;0.90;;
25435;SDS011;13363;52.772;-3.890;2024-02-15T02:29:06;2.10;;;0.77;;
25435;SDS011;13363;52.772;-3.890;2024-02-15T02:31:35;3.47;;;0.60;;
25435;SDS011;13363;52.772;-3.890;2024-02-15T02:34:02;3.20;;;0.87;;
25435;SDS011;13363;52.772;-3.890;2024-02-15T02:36:28;1.93;;;0.50;;
25435;SDS011;13363;52.772;-3.890;2024-02-15T02:38:55;1.47;;;0.70;;
25435;SDS011;13363;52.772;-3.890;2024-02-15T02:41:25;1.40;;;0.90;;
25435;SDS011;13363;52.772;-3.890;2024-02-15T02:43:51;1.03;;;0.90;;
25435;SDS011;13363;52.772;-3.890;2024-02-15T02:46:18;2.77;;;0.60;;
25435;SDS011;13363;52.772;-3.890;2024-02-15T02:48:44;1.30;;;0.70;;
25435;SDS011;13363;52.772;-3.890;2024-02-15T02:51:10;1.27;;;0.60;;
25435;SDS011;13363;52.772;-3.890;2024-02-15T02:53:37;0.70;;;0.70;;
25435;SDS011;13363;52.772;-3.890;2024-02-15T02:56:03;0.87;;;0.50;;
25435;SDS011;13363;52.772;-3.890;2024-02-15T02:58:29;1.83;;;0.70;;
25435;SDS011;13363;52.772;-3.890;2024-02-15T03:00:56;0.93;;;0.90;;
25435;SDS011;13363;52.772;-3.890;2024-02-15T03:03:25;2.40;;;0.50;;
25435;SDS011;13363;52.772;-3.890;2024-02-15T03:05:51;1.27;;;0.67;;
25435;SDS011;13363;52.772;-3.890;2024-02-15T03:08:19;0.50;;;0.47;;
25435;SDS011;13363;52.772;-3.890;2024-02-15T03:10:45;0.97;;;0.43;;
25435;SDS011;13363;52.772;-3.890;2024-02-15T03:13:12;1.47;;;0.50;;
25435;SDS011;13363;52.772;-3.890;2024-02-15T03:15:38;0.30;;;0.23;;
25435;SDS011;13363;52.772;-3.890;2024-02-15T03:18:06;0.30;;;0.30;;
25435;SDS011;13363;52.772;-3.890;2024-02-15T03:20:33;2.80;;;0.40;;
25435;SDS011;13363;52.772;-3.890;2024-02-15T03:23:03;0.43;;;0.30;;
25435;SDS011;13363;52.772;-3.890;2024-02-15T03:25:29;0.20;;;0.17;;
25435;SDS011;13363;52.772;-3.890;2024-02-15T03:27:56;0.40;;;0.40;;
25435;SDS011;13363;52.772;-3.890;2024-02-15T03:30:23;0.60;;;0.60;;
25435;SDS011;13363;52.772;-3.890;2024-02-15T03:32:50;0.23;;;0.20;;
25435;SDS011;13363;52.772;-3.890;2024-02-15T03:35:17;0.77;;;0.27;;
25435;SDS011;13363;52.772;-3.890;2024-02-15T03:37:43;0.30;;;0.30;;
25435;SDS011;13363;52.772;-3.890;2024-02-15T03:40:10;0.10;;;0.10;;
25435;SDS011;13363;52.772;-3.890;2024-02-15T03:42:36;0.30;;;0.20;;
25435;SDS011;13363;52.772;-3.890;2024-02-15T03:45:03;0.43;;;0.20;;
25435;SDS011;13363;52.772;-3.890;2024-02-15T03:47:34;0.30;;;0.10;;
25435;SDS011;13363;52.772;-3.890;2024-02-15T03:50:01;1.70;;;0.20;;
25435;SDS011;13363;52.772;-3.890;2024-02-15T03:52:28;0.10;;;0.10;;
25435;SDS011;13363;52.772;-3.890;2024-02-15T03:54:57;0.00;;;0.00;;
25435;SDS011;13363;52.772;-3.890;2024-02-15T03:57:24;0.20;;;0.20;;
25435;SDS011;13363;52.772;-3.890;2024-02-15T03:59:51;0.40;;;0.20;;
25435;SDS011;13363;52.772;-3.890;2024-02-15T04:02:18;1.03;;;0.10;;
25435;SDS011;13363;52.772;-3.890;2024-02-15T04:04:45;0.37;;;0.37;;
25435;SDS011;13363;52.772;-3.890;2024-02-15T04:07:18;0.83;;;0.10;;
25435;SDS011;13363;52.772;-3.890;2024-02-15T04:09:45;0.20;;;0.10;;
25435;SDS011;13363;52.772;-3.890;2024-02-15T04:12:11;0.00;;;0.00;;
25435;SDS011;13363;52.772;-3.890;2024-02-15T04:14:39;0.13;;;0.13;;
25435;SDS011;13363;52.772;-3.890;2024-02-15T04:17:05;0.20;;;0.20;;
25435;SDS011;13363;52.772;-3.890;2024-02-15T04:19:32;0.30;;;0.10;;
25435;SDS011;13363;52.772;-3.890;2024-02-15T04:21:58;0.10;;;0.03;;
25435;SDS011;13363;52.772;-3.890;2024-02-15T04:24:28;0.10;;;0.10;;
25435;SDS011;13363;52.772;-3.890;2024-02-15T04:26:54;1.03;;;0.00;;
25435;SDS011;13363;52.772;-3.890;2024-02-15T04:29:21;0.03;;;0.03;;
25435;SDS011;13363;52.772;-3.890;2024-02-15T04:31:47;0.00;;;0.00;;
25435;SDS011;13363;52.772;-3.890;2024-02-15T04:34:16;0.87;;;0.10;;
25435;SDS011;13363;52.772;-3.890;2024-02-15T04:36:45;0.10;;;0.10;;
25435;SDS011;13363;52.772;-3.890;2024-02-15T04:39:16;0.10;;;0.10;;
25435;SDS011;13363;52.772;-3.890;2024-02-15T04:41:52;0.10;;;0.10;;
25435;SDS011;13363;52.772;-3.890;2024-02-15T04:44:18;0.00;;;0.00;;
25435;SDS011;13363;52.772;-3.890;2024-02-15T04:46:52;0.10;;;0.10;;
25435;SDS011;13363;52.772;-3.890;2024-02-15T04:49:18;0.10;;;0.10;;
25435;SDS011;13363;52.772;-3.890;2024-02-15T04:51:45;0.03;;;0.00;;
25435;SDS011;13363;52.772;-3.890;2024-02-15T04:54:12;0.10;;;0.10;;
25435;SDS011;13363;52.772;-3.890;2024-02-15T04:56:39;0.10;;;0.10;;
25435;SDS011;13363;52.772;-3.890;2024-02-15T04:59:05;0.17;;;0.17;;
25435;SDS011;13363;52.772;-3.890;2024-02-15T05:01:39;0.17;;;0.17;;
25435;SDS011;13363;52.772;-3.890;2024-02-15T05:04:08;0.10;;;0.10;;
25435;SDS011;13363;52.772;-3.890;2024-02-15T05:06:35;0.10;;;0.10;;
25435;SDS011;13363;52.772;-3.890;2024-02-15T05:09:02;0.10;;;0.10;;
25435;SDS011;13363;52.772;-3.890;2024-02-15T05:11:37;0.40;;;0.20;;
25435;SDS011;13363;52.772;-3.890;2024-02-15T05:14:06;0.40;;;0.37;;
25435;SDS011;13363;52.772;-3.890;2024-02-15T05:16:33;0.30;;;0.30;;
25435;SDS011;13363;52.772;-3.890;2024-02-15T05:18:59;0.10;;;0.10;;
25435;SDS011;13363;52.772;-3.890;2024-02-15T05:21:25;0.50;;;0.50;;
25435;SDS011;13363;52.772;-3.890;2024-02-15T05:23:51;1.23;;;0.40;;
25435;SDS011;13363;52.772;-3.890;2024-02-15T05:26:18;0.53;;;0.40;;
25435;SDS011;13363;52.772;-3.890;2024-02-15T05:28:51;0.50;;;0.50;;
25435;SDS011;13363;52.772;-3.890;2024-02-15T05:31:18;1.57;;;0.70;;
25435;SDS011;13363;52.772;-3.890;2024-02-15T05:33:45;0.73;;;0.60;;
25435;SDS011;13363;52.772;-3.890;2024-02-15T05:36:15;2.90;;;0.80;;
25435;SDS011;13363;52.772;-3.890;2024-02-15T05:38:45;0.73;;;0.73;;
25435;SDS011;13363;52.772;-3.890;2024-02-15T05:41:12;1.63;;;1.00;;
25435;SDS011;13363;52.772;-3.890;2024-02-15T05:43:41;1.40;;;1.13;;
25435;SDS011;13363;52.772;-3.890;2024-02-15T05:46:08;2.37;;;1.07;;
25435;SDS011;13363;52.772;-3.890;2024-02-15T05:48:35;0.80;;;0.80;;
25435;SDS011;13363;52.772;-3.890;2024-02-15T05:51:02;1.00;;;1.00;;
25435;SDS011;13363;52.772;-3.890;2024-02-15T05:53:28;3.33;;;1.17;;
25435;SDS011;13363;52.772;-3.890;2024-02-15T05:55:54;0.80;;;0.80;;
25435;SDS011;13363;52.772;-3.890;2024-02-15T05:58:23;1.97;;;1.33;;
25435;SDS011;13363;52.772;-3.890;2024-02-15T06:00:49;1.40;;;1.30;;
25435;SDS011;13363;52.772;-3.890;2024-02-15T06:03:15;1.33;;;1.23;;
25435;SDS011;13363;52.772;-3.890;2024-02-15T06:05:42;3.60;;;1.00;;
25435;SDS011;13363;52.772;-3.890;2024-02-15T06:08:09;2.13;;;1.80;;
25435;SDS011;13363;52.772;-3.890;2024-02-15T06:10:37;1.17;;;1.10;;
25435;SDS011;13363;52.772;-3.890;2024-02-15T06:13:04;2.60;;;1.50;;
25435;SDS011;13363;52.772;-3.890;2024-02-15T06:15:30;1.20;;;1.10;;
25435;SDS011;13363;52.772;-3.890;2024-02-15T06:17:57;1.20;;;1.10;;
25435;SDS011;13363;52.772;-3.890;2024-02-15T06:20:23;2.83;;;1.40;;
25435;SDS011;13363;52.772;-3.890;2024-02-15T06:22:50;1.20;;;1.20;;
25435;SDS011;13363;52.772;-3.890;2024-02-15T06:25:17;3.13;;;1.60;;
25435;SDS011;13363;52.772;-3.890;2024-02-15T06:27:46;1.80;;;1.20;;
25435;SDS011;13363;52.772;-3.890;2024-02-15T06:30:13;1.70;;;1.60;;
25435;SDS011;13363;52.772;-3.890;2024-02-15T06:32:58;1.47;;;1.10;;
25435;SDS011;13363;52.772;-3.890;2024-02-15T06:35:43;2.40;;;1.60;;
25435;SDS011;13363;52.772;-3.890;2024-02-15T06:38:28;1.40;;;1.30;;
25435;SDS011;13363;52.772;-3.890;2024-02-15T06:41:12;1.97;;;1.50;;
25435;SDS011;13363;52.772;-3.890;2024-02-15T06:43:38;2.17;;;1.67;;
25435;SDS011;13363;52.772;-3.890;2024-02-15T06:46:08;3.83;;;1.67;;
25435;SDS011;13363;52.772;-3.890;2024-02-15T06:48:36;1.70;;;1.60;;
25435;SDS011;13363;52.772;-3.890;2024-02-15T06:51:02;4.73;;;1.90;;
25435;SDS011;13363;52.772;-3.890;2024-02-15T06:53:31;2.40;;;2.07;;
25435;SDS011;13363;52.772;-3.890;2024-02-15T06:55:57;2.90;;;2.03;;
25435;SDS011;13363;52.772;-3.890;2024-02-15T06:58:24;1.93;;;1.77;;
25435;SDS011;13363;52.772;-3.890;2024-02-15T07:00:50;2.03;;;1.93;;
25435;SDS011;13363;52.772;-3.890;2024-02-15T07:03:16;2.20;;;1.87;;
25435;SDS011;13363;52.772;-3.890;2024-02-15T07:05:42;4.87;;;1.90;;
25435;SDS011;13363;52.772;-3.890;2024-02-15T07:08:09;4.37;;;1.93;;
25435;SDS011;13363;52.772;-3.890;2024-02-15T07:10:38;2.93;;;1.90;;
25435;SDS011;13363;52.772;-3.890;2024-02-15T07:13:05;4.60;;;1.80;;
25435;SDS011;13363;52.772;-3.890;2024-02-15T07:15:32;5.20;;;1.97;;
25435;SDS011;13363;52.772;-3.890;2024-02-15T07:18:03;6.47;;;2.27;;
25435;SDS011;13363;52.772;-3.890;2024-02-15T07:20:31;2.97;;;1.77;;
25435;SDS011;13363;52.772;-3.890;2024-02-15T07:22:57;3.77;;;2.33;;
25435;SDS011;13363;52.772;-3.890;2024-02-15T07:25:23;2.33;;;1.90;;
25435;SDS011;13363;52.772;-3.890;2024-02-15T07:27:50;2.43;;;1.90;;
25435;SDS011;13363;52.772;-3.890;2024-02-15T07:30:17;2.83;;;1.90;;
25435;SDS011;13363;52.772;-3.890;2024-02-15T07:32:44;2.53;;;2.00;;
25435;SDS011;13363;52.772;-3.890;2024-02-15T07:35:11;2.47;;;2.27;;
25435;SDS011;13363;52.772;-3.890;2024-02-15T07:37:39;3.57;;;2.00;;
25435;SDS011;13363;52.772;-3.890;2024-02-15T07:40:05;2.70;;;2.30;;
25435;SDS011;13363;52.772;-3.890;2024-02-15T07:42:33;2.77;;;2.10;;
25435;SDS011;13363;52.772;-3.890;2024-02-15T07:45:00;3.40;;;2.03;;
25435;SDS011;13363;52.772;-3.890;2024-02-15T07:47:26;3.33;;;2.23;;
25435;SDS011;13363;52.772;-3.890;2024-02-15T07:49:55;3.43;;;2.00;;
25435;SDS011;13363;52.772;-3.890;2024-02-15T07:52:21;2.27;;;2.07;;
25435;SDS011;13363;52.772;-3.890;2024-02-15T07:54:47;4.70;;;2.57;;
25435;SDS011;13363;52.772;-3.890;2024-02-15T07:57:13;4.07;;;2.43;;
25435;SDS011;13363;52.772;-3.890;2024-02-15T07:59:39;3.70;;;2.33;;
25435;SDS011;13363;52.772;-3.890;2024-02-15T08:02:07;5.17;;;2.47;;
25435;SDS011;13363;52.772;-3.890;2024-02-15T08:04:33;3.00;;;2.30;;
25435;SDS011;13363;52.772;-3.890;2024-02-15T08:07:05;4.60;;;1.90;;
25435;SDS011;13363;52.772;-3.890;2024-02-15T08:09:35;3.53;;;2.80;;
25435;SDS011;13363;52.772;-3.890;2024-02-15T08:12:01;3.13;;;2.47;;
25435;SDS011;13363;52.772;-3.890;2024-02-15T08:14:28;3.13;;;2.30;;
25435;SDS011;13363;52.772;-3.890;2024-02-15T08:16:54;3.50;;;2.80;;
25435;SDS011;13363;52.772;-3.890;2024-02-15T08:19:21;4.53;;;2.87;;
25435;SDS011;13363;52.772;-3.890;2024-02-15T08:21:48;2.83;;;2.03;;
25435;SDS011;13363;52.772;-3.890;2024-02-15T08:24:16;3.97;;;2.20;;
25435;SDS011;13363;52.772;-3.890;2024-02-15T08:26:42;5.47;;;3.43;;
25435;SDS011;13363;52.772;-3.890;2024-02-15T08:29:11;4.40;;;2.87;;
25435;SDS011;13363;52.772;-3.890;2024-02-15T08:31:40;5.20;;;3.10;;
25435;SDS011;13363;52.772;-3.890;2024-02-15T08:34:06;5.47;;;2.87;;
25435;SDS011;13363;52.772;-3.890;2024-02-15T08:36:35;3.90;;;3.07;;
25435;SDS011;13363;52.772;-3.890;2024-02-15T08:39:02;4.37;;;2.93;;
25435;SDS011;13363;52.772;-3.890;2024-02-15T08:41:29;9.73;;;3.43;;
25435;SDS011;13363;52.772;-3.890;2024-02-15T08:43:56;5.73;;;2.70;;
25435;SDS011;13363;52.772;-3.890;2024-02-15T08:46:23;3.63;;;2.80;;
25435;SDS011;13363;52.772;-3.890;2024-02-15T08:48:52;5.00;;;2.90;;
25435;SDS011;13363;52.772;-3.890;2024-02-15T08:51:18;4.17;;;2.53;;
25435;SDS011;13363;52.772;-3.890;2024-02-15T08:53:45;3.47;;;2.57;;
25435;SDS011;13363;52.772;-3.890;2024-02-15T08:56:12;3.43;;;2.20;;
25435;SDS011;13363;52.772;-3.890;2024-02-15T08:58:39;4.40;;;2.80;;
25435;SDS011;13363;52.772;-3.890;2024-02-15T09:01:05;2.87;;;2.43;;
25435;SDS011;13363;52.772;-3.890;2024-02-15T09:03:34;2.30;;;2.10;;
25435;SDS011;13363;52.772;-3.890;2024-02-15T09:06:04;3.17;;;1.83;;
25435;SDS011;13363;52.772;-3.890;2024-02-15T09:08:36;1.70;;;1.60;;
25435;SDS011;13363;52.772;-3.890;2024-02-15T09:11:03;1.87;;;1.77;;
25435;SDS011;13363;52.772;-3.890;2024-02-15T09:13:29;1.73;;;1.53;;
25435;SDS011;13363;52.772;-3.890;2024-02-15T09:15:57;1.70;;;1.57;;
25435;SDS011;13363;52.772;-3.890;2024-02-15T09:18:24;1.10;;;1.10;;
25435;SDS011;13363;52.772;-3.890;2024-02-15T09:20:52;2.00;;;1.33;;
25435;SDS011;13363;52.772;-3.890;2024-02-15T09:23:22;2.10;;;1.40;;
25435;SDS011;13363;52.772;-3.890;2024-02-15T09:25:51;1.43;;;1.30;;
25435;SDS011;13363;52.772;-3.890;2024-02-15T09:28:17;1.90;;;1.30;;
25435;SDS011;13363;52.772;-3.890;2024-02-15T09:30:48;1.40;;;1.30;;
25435;SDS011;13363;52.772;-3.890;2024-02-15T09:33:21;2.80;;;1.43;;
25435;SDS011;13363;52.772;-3.890;2024-02-15T09:35:47;3.50;;;1.60;;
25435;SDS011;13363;52.772;-3.890;2024-02-15T09:38:13;2.67;;;2.00;;
25435;SDS011;13363;52.772;-3.890;2024-02-15T09:40:42;2.73;;;1.87;;
25435;SDS011;13363;52.772;-3.890;2024-02-15T09:43:09;2.33;;;2.13;;
25435;SDS011;13363;52.772;-3.890;2024-02-15T09:45:38;3.83;;;2.17;;
25435;SDS011;13363;52.772;-3.890;2024-02-15T09:48:05;2.87;;;2.10;;
25435;SDS011;13363;52.772;-3.890;2024-02-15T09:50:34;1.93;;;1.77;;
25435;SDS011;13363;52.772;-3.890;2024-02-15T09:53:00;5.77;;;2.00;;
25435;SDS011;13363;52.772;-3.890;2024-02-15T09:55:27;1.87;;;1.47;;
25435;SDS011;13363;52.772;-3.890;2024-02-15T09:57:54;2.00;;;1.77;;
25435;SDS011;13363;52.772;-3.890;2024-02-15T10:00:22;2.00;;;1.90;;
25435;SDS011;13363;52.772;-3.890;2024-02-15T10:02:53;1.97;;;1.87;;
25435;SDS011;13363;52.772;-3.890;2024-02-15T10:05:21;3.20;;;2.07;;
25435;SDS011;13363;52.772;-3.890;2024-02-15T10:07:48;4.40;;;2.30;;
25435;SDS011;13363;52.772;-3.890;2024-02-15T10:10:24;2.07;;;1.90;;
25435;SDS011;13363;52.772;-3.890;2024-02-15T10:12:52;2.73;;;2.03;;
25435;SDS011;13363;52.772;-3.890;2024-02-15T10:15:31;3.63;;;1.83;;
25435;SDS011;13363;52.772;-3.890;2024-02-15T10:17:59;2.73;;;2.30;;
25435;SDS011;13363;52.772;-3.890;2024-02-15T10:20:25;2.23;;;1.70;;
25435;SDS011;13363;52.772;-3.890;2024-02-15T10:22:54;3.60;;;2.17;;
25435;SDS011;13363;52.772;-3.890;2024-02-15T10:25:34;3.73;;;1.93;;
25435;SDS011;13363;52.772;-3.890;2024-02-15T10:28:02;2.97;;;2.10;;
25435;SDS011;13363;52.772;-3.890;2024-02-15T10:30:32;3.93;;;2.43;;
25435;SDS011;13363;52.772;-3.890;2024-02-15T10:32:58;4.90;;;2.00;;
25435;SDS011;13363;52.772;-3.890;2024-02-15T10:35:24;6.20;;;2.43;;
25435;SDS011;13363;52.772;-3.890;2024-02-15T10:37:51;3.47;;;2.10;;
25435;SDS011;13363;52.772;-3.890;2024-02-15T10:40:18;5.03;;;1.93;;
25435;SDS011;13363;52.772;-3.890;2024-02-15T10:42:47;2.37;;;1.80;;
25435;SDS011;13363;52.772;-3.890;2024-02-15T10:45:17;4.57;;;2.37;;
25435;SDS011;13363;52.772;-3.890;2024-02-15T10:47:45;2.47;;;2.20;;
25435;SDS011;13363;52.772;-3.890;2024-02-15T10:50:12;4.47;;;2.67;;
25435;SDS011;13363;52.772;-3.890;2024-02-15T10:52:48;4.00;;;2.50;;
25435;SDS011;13363;52.772;-3.890;2024-02-15T10:55:20;6.00;;;3.10;;
25435;SDS011;13363;52.772;-3.890;2024-02-15T10:57:47;4.70;;;2.93;;
25435;SDS011;13363;52.772;-3.890;2024-02-15T11:00:16;4.77;;;2.53;;
25435;SDS011;13363;52.772;-3.890;2024-02-15T11:03:02;5.67;;;2.90;;
25435;SDS011;13363;52.772;-3.890;2024-02-15T11:05:39;3.10;;;2.47;;
25435;SDS011;13363;52.772;-3.890;2024-02-15T11:08:07;4.17;;;2.70;;
25435;SDS011;13363;52.772;-3.890;2024-02-15T11:10:34;3.33;;;2.70;;
25435;SDS011;13363;52.772;-3.890;2024-02-15T11:13:00;2.80;;;2.53;;
25435;SDS011;13363;52.772;-3.890;2024-02-15T11:15:43;4.93;;;2.20;;
25435;SDS011;13363;52.772;-3.890;2024-02-15T11:19:03;3.70;;;2.73;;
25435;SDS011;13363;52.772;-3.890;2024-02-15T11:21:05;3.33;;;2.60;;
25435;SDS011;13363;52.772;-3.890;2024-02-15T11:23:31;4.30;;;2.20;;
25435;SDS011;13363;52.772;-3.890;2024-02-15T11:25:57;3.80;;;2.43;;
25435;SDS011;13363;52.772;-3.890;2024-02-15T11:30:54;2.90;;;2.23;;
25435;SDS011;13363;52.772;-3.890;2024-02-15T11:33:33;4.43;;;2.43;;
25435;SDS011;13363;52.772;-3.890;2024-02-15T11:36:10;4.60;;;2.43;;
25435;SDS011;13363;52.772;-3.890;2024-02-15T11:38:37;4.50;;;2.10;;
25435;SDS011;13363;52.772;-3.890;2024-02-15T11:41:08;3.20;;;2.13;;
25435;SDS011;13363;52.772;-3.890;2024-02-15T11:46:16;2.27;;;2.03;;
25435;SDS011;13363;52.772;-3.890;2024-02-15T11:48:44;4.07;;;1.80;;
25435;SDS011;13363;52.772;-3.890;2024-02-15T11:51:23;4.73;;;2.30;;
25435;SDS011;13363;52.772;-3.890;2024-02-15T11:54:01;3.90;;;2.20;;
25435;SDS011;13363;52.772;-3.890;2024-02-15T11:56:31;2.60;;;2.37;;
25435;SDS011;13363;52.772;-3.890;2024-02-15T11:59:04;4.90;;;1.93;;
25435;SDS011;13363;52.772;-3.890;2024-02-15T12:01:37;2.33;;;2.13;;
25435;SDS011;13363;52.772;-3.890;2024-02-15T12:04:24;6.27;;;2.23;;
25435;SDS011;13363;52.772;-3.890;2024-02-15T12:07:09;2.43;;;2.10;;
25435;SDS011;13363;52.772;-3.890;2024-02-15T12:09:58;4.93;;;2.03;;
25435;SDS011;13363;52.772;-3.890;2024-02-15T12:12:51;3.83;;;1.90;;
25435;SDS011;13363;52.772;-3.890;2024-02-15T12:15:36;5.07;;;2.47;;
25435;SDS011;13363;52.772;-3.890;2024-02-15T12:18:21;4.40;;;2.10;;
25435;SDS011;13363;52.772;-3.890;2024-02-15T12:21:06;3.83;;;2.10;;
25435;SDS011;13363;52.772;-3.890;2024-02-15T12:23:34;6.37;;;2.13;;
25435;SDS011;13363;52.772;-3.890;2024-02-15T12:26:01;3.33;;;2.07;;
25435;SDS011;13363;52.772;-3.890;2024-02-15T12:28:31;3.97;;;2.27;;
25435;SDS011;13363;52.772;-3.890;2024-02-15T12:30:58;3.00;;;2.20;;
25435;SDS011;13363;52.772;-3.890;2024-02-15T12:33:24;4.87;;;2.63;;
25435;SDS011;13363;52.772;-3.890;2024-02-15T12:35:52;3.43;;;2.33;;
25435;SDS011;13363;52.772;-3.890;2024-02-15T12:38:30;2.10;;;1.70;;
25435;SDS011;13363;52.772;-3.890;2024-02-15T12:40:56;4.77;;;2.03;;
25435;SDS011;13363;52.772;-3.890;2024-02-15T12:43:22;4.30;;;2.53;;
25435;SDS011;13363;52.772;-3.890;2024-02-15T12:45:49;3.43;;;2.10;;
25435;SDS011;13363;52.772;-3.890;2024-02-15T12:48:15;3.97;;;2.57;;
25435;SDS011;13363;52.772;-3.890;2024-02-15T12:50:44;5.33;;;2.20;;
25435;SDS011;13363;52.772;-3.890;2024-02-15T12:53:11;6.20;;;2.30;;
25435;SDS011;13363;52.772;-3.890;2024-02-15T12:55:38;7.83;;;2.63;;
25435;SDS011;13363;52.772;-3.890;2024-02-15T12:58:12;5.30;;;2.30;;
25435;SDS011;13363;52.772;-3.890;2024-02-15T13:00:40;3.67;;;2.30;;
25435;SDS011;13363;52.772;-3.890;2024-02-15T13:03:09;3.40;;;2.23;;
25435;SDS011;13363;52.772;-3.890;2024-02-15T13:05:36;2.73;;;2.07;;
25435;SDS011;13363;52.772;-3.890;2024-02-15T13:08:02;4.97;;;1.90;;
25435;SDS011;13363;52.772;-3.890;2024-02-15T13:10:35;6.63;;;2.40;;
25435;SDS011;13363;52.772;-3.890;2024-02-15T13:13:04;5.60;;;2.23;;
25435;SDS011;13363;52.772;-3.890;2024-02-15T13:15:30;4.70;;;1.70;;
25435;SDS011;13363;52.772;-3.890;2024-02-15T13:18:01;5.63;;;2.17;;
25435;SDS011;13363;52.772;-3.890;2024-02-15T13:20:30;2.67;;;1.93;;
25435;SDS011;13363;52.772;-3.890;2024-02-15T13:23:04;3.57;;;1.60;;
25435;SDS011;13363;52.772;-3.890;2024-02-15T13:25:34;1.53;;;1.43;;
25435;SDS011;13363;52.772;-3.890;2024-02-15T13:28:01;1.97;;;1.33;;
25435;SDS011;13363;52.772;-3.890;2024-02-15T13:30:29;1.57;;;1.30;;
25435;SDS011;13363;52.772;-3.890;2024-02-15T13:32:55;1.63;;;1.10;;
25435;SDS011;13363;52.772;-3.890;2024-02-15T13:35:22;2.10;;;1.23;;
25435;SDS011;13363;52.772;-3.890;2024-02-15T13:37:55;1.00;;;0.70;;
25435;SDS011;13363;52.772;-3.890;2024-02-15T13:40:25;2.10;;;1.23;;
25435;SDS011;13363;52.772;-3.890;2024-02-15T13:42:56;0.80;;;0.80;;
25435;SDS011;13363;52.772;-3.890;2024-02-15T13:45:33;1.27;;;0.70;;
25435;SDS011;13363;52.772;-3.890;2024-02-15T13:48:02;0.67;;;0.67;;
25435;SDS011;13363;52.772;-3.890;2024-02-15T13:50:32;0.70;;;0.70;;
25435;SDS011;13363;52.772;-3.890;2024-02-15T13:52:59;0.43;;;0.43;;
25435;SDS011;13363;52.772;-3.890;2024-02-15T13:55:26;0.77;;;0.50;;
25435;SDS011;13363;52.772;-3.890;2024-02-15T13:57:53;1.67;;;0.70;;
25435;SDS011;13363;52.772;-3.890;2024-02-15T14:00:24;0.70;;;0.70;;
25435;SDS011;13363;52.772;-3.890;2024-02-15T14:02:59;2.10;;;0.97;;
25435;SDS011;13363;52.772;-3.890;2024-02-15T14:05:26;0.40;;;0.40;;
25435;SDS011;13363;52.772;-3.890;2024-02-15T14:07:59;0.83;;;0.60;;
25435;SDS011;13363;52.772;-3.890;2024-02-15T14:10:28;0.40;;;0.40;;
25435;SDS011;13363;52.772;-3.890;2024-02-15T14:12:54;1.80;;;0.57;;
25435;SDS011;13363;52.772;-3.890;2024-02-15T14:15:23;2.37;;;0.77;;
25435;SDS011;13363;52.772;-3.890;2024-02-15T14:17:49;0.83;;;0.83;;
25435;SDS011;13363;52.772;-3.890;2024-02-15T14:20:15;1.43;;;0.60;;
25435;SDS011;13363;52.772;-3.890;2024-02-15T14:22:43;0.87;;;0.87;;
25435;SDS011;13363;52.772;-3.890;2024-02-15T14:25:10;0.50;;;0.50;;
25435;SDS011;13363;52.772;-3.890;2024-02-15T14:27:39;1.30;;;0.80;;
25435;SDS011;13363;52.772;-3.890;2024-02-15T14:30:06;1.23;;;0.80;;
25435;SDS011;13363;52.772;-3.890;2024-02-15T14:32:51;1.37;;;0.73;;
25435;SDS011;13363;52.772;-3.890;2024-02-15T14:35:27;0.80;;;0.80;;
25435;SDS011;13363;52.772;-3.890;2024-02-15T14:37:55;0.90;;;0.90;;
25435;SDS011;13363;52.772;-3.890;2024-02-15T14:40:23;0.63;;;0.50;;
25435;SDS011;13363;52.772;-3.890;2024-02-15T14:42:49;0.70;;;0.70;;
25435;SDS011;13363;52.772;-3.890;2024-02-15T14:45:15;1.83;;;0.83;;
25435;SDS011;13363;52.772;-3.890;2024-02-15T14:47:41;0.70;;;0.70;;